sensor_id;sensor_type;location;lat;lon;timestamp;P1;durP1;ratioP1;P2;durP2;ratioP2
22046;SDS011;11187;49.412;20.956;2022-08-01T00:00:28;20.52;;;19.23;;
22046;SDS011;11187;49.412;20.956;2022-08-01T00:03:22;18.75;;;17.75;;
22046;SDS011;11187;49.412;20.956;2022-08-01T00:05:56;20.17;;;19.08;;
22046;SDS011;11187;49.412;20.956;2022-08-01T00:08:43;21.00;;;19.80;;
22046;SDS011;11187;49.412;20.956;2022-08-01T00:11:17;19.80;;;18.60;;
22046;SDS011;11187;49.412;20.956;2022-08-01T00:14:10;20.05;;;18.75;;
22046;SDS011;11187;49.412;20.956;2022-08-01T00:16:57;19.98;;;18.77;;
22046;SDS011;11187;49.412;20.956;2022-08-01T00:19:50;21.27;;;20.17;;
22046;SDS011;11187;49.412;20.956;2022-08-01T00:22:24;21.73;;;20.42;;
22046;SDS011;11187;49.412;20.956;2022-08-01T00:25:18;22.05;;;20.75;;
22046;SDS011;11187;49.412;20.956;2022-08-01T00:28:00;20.45;;;19.23;;
22046;SDS011;11187;49.412;20.956;2022-08-01T00:30:54;22.33;;;20.92;;
22046;SDS011;11187;49.412;20.956;2022-08-01T00:33:28;25.10;;;23.15;;
22046;SDS011;11187;49.412;20.956;2022-08-01T00:36:14;23.63;;;22.02;;
22046;SDS011;11187;49.412;20.956;2022-08-01T00:38:48;24.90;;;23.40;;
22046;SDS011;11187;49.412;20.956;2022-08-01T00:41:34;23.00;;;21.60;;
22046;SDS011;11187;49.412;20.956;2022-08-01T00:44:08;23.45;;;21.95;;
22046;SDS011;11187;49.412;20.956;2022-08-01T00:47:02;24.48;;;22.98;;
22046;SDS011;11187;49.412;20.956;2022-08-01T00:49:37;24.17;;;22.77;;
22046;SDS011;11187;49.412;20.956;2022-08-01T00:52:31;26.20;;;24.30;;
22046;SDS011;11187;49.412;20.956;2022-08-01T00:55:06;24.52;;;22.70;;
22046;SDS011;11187;49.412;20.956;2022-08-01T00:58:02;24.90;;;23.10;;
22046;SDS011;11187;49.412;20.956;2022-08-01T01:00:37;25.17;;;23.48;;
22046;SDS011;11187;49.412;20.956;2022-08-01T01:03:31;24.63;;;23.00;;
22046;SDS011;11187;49.412;20.956;2022-08-01T01:06:30;25.25;;;23.38;;
22046;SDS011;11187;49.412;20.956;2022-08-01T01:12:02;23.92;;;22.35;;
22046;SDS011;11187;49.412;20.956;2022-08-01T01:18:02;25.02;;;23.52;;
22046;SDS011;11187;49.412;20.956;2022-08-01T01:20:41;27.83;;;25.92;;
22046;SDS011;11187;49.412;20.956;2022-08-01T01:29:42;24.60;;;23.10;;
22046;SDS011;11187;49.412;20.956;2022-08-01T01:32:35;24.77;;;23.20;;
22046;SDS011;11187;49.412;20.956;2022-08-01T01:35:26;25.25;;;23.30;;
22046;SDS011;11187;49.412;20.956;2022-08-01T01:38:05;25.40;;;23.58;;
22046;SDS011;11187;49.412;20.956;2022-08-01T01:41:02;27.77;;;25.55;;
22046;SDS011;11187;49.412;20.956;2022-08-01T01:43:58;27.25;;;24.95;;
22046;SDS011;11187;49.412;20.956;2022-08-01T01:46:54;26.02;;;24.23;;
22046;SDS011;11187;49.412;20.956;2022-08-01T01:49:32;23.55;;;21.95;;
22046;SDS011;11187;49.412;20.956;2022-08-01T01:52:19;24.17;;;22.25;;
22046;SDS011;11187;49.412;20.956;2022-08-01T01:54:54;23.40;;;21.67;;
22046;SDS011;11187;49.412;20.956;2022-08-01T01:57:43;24.38;;;22.50;;
22046;SDS011;11187;49.412;20.956;2022-08-01T02:00:17;24.58;;;22.85;;
22046;SDS011;11187;49.412;20.956;2022-08-01T02:03:11;23.63;;;22.00;;
22046;SDS011;11187;49.412;20.956;2022-08-01T02:05:45;24.23;;;22.15;;
22046;SDS011;11187;49.412;20.956;2022-08-01T02:08:32;24.27;;;22.58;;
22046;SDS011;11187;49.412;20.956;2022-08-01T02:11:07;24.10;;;22.45;;
22046;SDS011;11187;49.412;20.956;2022-08-01T02:14:01;25.60;;;23.70;;
22046;SDS011;11187;49.412;20.956;2022-08-01T02:16:36;26.33;;;24.20;;
22046;SDS011;11187;49.412;20.956;2022-08-01T02:19:33;24.77;;;22.80;;
22046;SDS011;11187;49.412;20.956;2022-08-01T02:22:08;23.83;;;21.98;;
22046;SDS011;11187;49.412;20.956;2022-08-01T02:25:09;24.15;;;22.15;;
22046;SDS011;11187;49.412;20.956;2022-08-01T02:28:10;25.10;;;23.20;;
22046;SDS011;11187;49.412;20.956;2022-08-01T02:31:16;25.77;;;23.55;;
22046;SDS011;11187;49.412;20.956;2022-08-01T02:34:15;23.98;;;22.48;;
22046;SDS011;11187;49.412;20.956;2022-08-01T02:36:52;24.13;;;22.38;;
22046;SDS011;11187;49.412;20.956;2022-08-01T02:39:42;26.05;;;24.00;;
22046;SDS011;11187;49.412;20.956;2022-08-01T02:42:18;25.30;;;23.60;;
22046;SDS011;11187;49.412;20.956;2022-08-01T02:45:05;25.95;;;23.63;;
22046;SDS011;11187;49.412;20.956;2022-08-01T02:47:41;23.33;;;21.88;;
22046;SDS011;11187;49.412;20.956;2022-08-01T02:50:30;25.88;;;23.90;;
22046;SDS011;11187;49.412;20.956;2022-08-01T02:53:05;26.17;;;24.33;;
22046;SDS011;11187;49.412;20.956;2022-08-01T02:56:19;25.52;;;23.92;;
22046;SDS011;11187;49.412;20.956;2022-08-01T02:58:54;27.58;;;25.67;;
22046;SDS011;11187;49.412;20.956;2022-08-01T03:01:42;25.48;;;23.40;;
22046;SDS011;11187;49.412;20.956;2022-08-01T03:04:21;24.15;;;22.35;;
22046;SDS011;11187;49.412;20.956;2022-08-01T03:07:10;31.95;;;24.08;;
22046;SDS011;11187;49.412;20.956;2022-08-01T03:09:45;26.52;;;24.25;;
22046;SDS011;11187;49.412;20.956;2022-08-01T03:12:33;25.83;;;23.92;;
22046;SDS011;11187;49.412;20.956;2022-08-01T03:15:07;27.42;;;25.17;;
22046;SDS011;11187;49.412;20.956;2022-08-01T03:17:57;26.48;;;24.45;;
22046;SDS011;11187;49.412;20.956;2022-08-01T03:20:33;24.00;;;22.02;;
22046;SDS011;11187;49.412;20.956;2022-08-01T03:23:28;26.67;;;24.27;;
22046;SDS011;11187;49.412;20.956;2022-08-01T03:26:04;26.42;;;24.63;;
22046;SDS011;11187;49.412;20.956;2022-08-01T03:28:59;26.15;;;24.02;;
22046;SDS011;11187;49.412;20.956;2022-08-01T03:31:57;28.30;;;25.92;;
22046;SDS011;11187;49.412;20.956;2022-08-01T03:34:53;28.48;;;26.42;;
22046;SDS011;11187;49.412;20.956;2022-08-01T03:37:56;27.17;;;24.95;;
22046;SDS011;11187;49.412;20.956;2022-08-01T03:40:53;27.10;;;25.30;;
22046;SDS011;11187;49.412;20.956;2022-08-01T03:43:58;25.33;;;23.20;;
22046;SDS011;11187;49.412;20.956;2022-08-01T03:46:39;28.48;;;26.13;;
22046;SDS011;11187;49.412;20.956;2022-08-01T03:49:40;26.35;;;24.02;;
22046;SDS011;11187;49.412;20.956;2022-08-01T03:52:15;27.55;;;25.45;;
22046;SDS011;11187;49.412;20.956;2022-08-01T03:55:10;28.02;;;25.77;;
22046;SDS011;11187;49.412;20.956;2022-08-01T03:57:45;24.08;;;22.45;;
22046;SDS011;11187;49.412;20.956;2022-08-01T04:00:40;25.67;;;23.67;;
22046;SDS011;11187;49.412;20.956;2022-08-01T04:03:14;27.42;;;25.10;;
22046;SDS011;11187;49.412;20.956;2022-08-01T04:06:05;25.60;;;23.80;;
22046;SDS011;11187;49.412;20.956;2022-08-01T04:08:41;24.58;;;22.70;;
22046;SDS011;11187;49.412;20.956;2022-08-01T04:11:42;25.63;;;24.00;;
22046;SDS011;11187;49.412;20.956;2022-08-01T04:14:36;23.58;;;21.63;;
22046;SDS011;11187;49.412;20.956;2022-08-01T04:17:09;24.65;;;22.83;;
22046;SDS011;11187;49.412;20.956;2022-08-01T04:20:17;24.45;;;22.42;;
22046;SDS011;11187;49.412;20.956;2022-08-01T04:22:51;24.98;;;23.08;;
22046;SDS011;11187;49.412;20.956;2022-08-01T04:25:38;24.85;;;23.13;;
22046;SDS011;11187;49.412;20.956;2022-08-01T04:28:13;23.58;;;22.05;;
22046;SDS011;11187;49.412;20.956;2022-08-01T04:31:01;24.83;;;23.13;;
22046;SDS011;11187;49.412;20.956;2022-08-01T04:33:58;26.10;;;24.23;;
22046;SDS011;11187;49.412;20.956;2022-08-01T04:36:55;25.20;;;23.25;;
22046;SDS011;11187;49.412;20.956;2022-08-01T04:39:52;28.08;;;25.80;;
22046;SDS011;11187;49.412;20.956;2022-08-01T04:42:27;22.50;;;20.90;;
22046;SDS011;11187;49.412;20.956;2022-08-01T04:45:14;24.77;;;22.73;;
22046;SDS011;11187;49.412;20.956;2022-08-01T04:47:48;26.08;;;23.88;;
22046;SDS011;11187;49.412;20.956;2022-08-01T04:50:36;22.02;;;20.17;;
22046;SDS011;11187;49.412;20.956;2022-08-01T04:53:16;24.92;;;23.23;;
22046;SDS011;11187;49.412;20.956;2022-08-01T04:56:12;24.52;;;22.92;;
22046;SDS011;11187;49.412;20.956;2022-08-01T04:58:45;23.40;;;21.63;;
22046;SDS011;11187;49.412;20.956;2022-08-01T05:01:59;21.45;;;19.85;;
22046;SDS011;11187;49.412;20.956;2022-08-01T05:04:33;23.00;;;21.38;;
22046;SDS011;11187;49.412;20.956;2022-08-01T05:07:20;20.58;;;19.17;;
22046;SDS011;11187;49.412;20.956;2022-08-01T05:09:53;20.42;;;19.05;;
22046;SDS011;11187;49.412;20.956;2022-08-01T05:12:44;19.70;;;18.40;;
22046;SDS011;11187;49.412;20.956;2022-08-01T05:15:17;20.45;;;18.95;;
22046;SDS011;11187;49.412;20.956;2022-08-01T05:18:04;21.77;;;20.33;;
22046;SDS011;11187;49.412;20.956;2022-08-01T05:20:40;22.90;;;21.30;;
22046;SDS011;11187;49.412;20.956;2022-08-01T05:23:27;23.27;;;21.05;;
22046;SDS011;11187;49.412;20.956;2022-08-01T05:26:09;23.23;;;21.52;;
22046;SDS011;11187;49.412;20.956;2022-08-01T05:28:57;19.90;;;18.60;;
22046;SDS011;11187;49.412;20.956;2022-08-01T05:31:30;20.60;;;19.20;;
22046;SDS011;11187;49.412;20.956;2022-08-01T05:34:17;19.83;;;18.42;;
22046;SDS011;11187;49.412;20.956;2022-08-01T05:36:50;22.75;;;21.02;;
22046;SDS011;11187;49.412;20.956;2022-08-01T05:39:44;21.25;;;19.83;;
22046;SDS011;11187;49.412;20.956;2022-08-01T05:42:17;21.13;;;19.63;;
22046;SDS011;11187;49.412;20.956;2022-08-01T05:45:04;20.58;;;18.92;;
22046;SDS011;11187;49.412;20.956;2022-08-01T05:47:37;21.70;;;19.90;;
22046;SDS011;11187;49.412;20.956;2022-08-01T05:50:31;21.50;;;19.85;;
22046;SDS011;11187;49.412;20.956;2022-08-01T05:53:05;21.85;;;20.35;;
22046;SDS011;11187;49.412;20.956;2022-08-01T05:55:59;19.25;;;17.92;;
22046;SDS011;11187;49.412;20.956;2022-08-01T05:58:53;21.10;;;19.52;;
22046;SDS011;11187;49.412;20.956;2022-08-01T06:01:47;20.58;;;18.95;;
22046;SDS011;11187;49.412;20.956;2022-08-01T06:04:41;19.90;;;18.38;;
22046;SDS011;11187;49.412;20.956;2022-08-01T06:07:14;17.08;;;15.88;;
22046;SDS011;11187;49.412;20.956;2022-08-01T06:10:08;18.95;;;17.65;;
22046;SDS011;11187;49.412;20.956;2022-08-01T06:12:42;19.90;;;18.50;;
22046;SDS011;11187;49.412;20.956;2022-08-01T06:15:36;18.15;;;16.70;;
22046;SDS011;11187;49.412;20.956;2022-08-01T06:18:09;16.40;;;15.20;;
22046;SDS011;11187;49.412;20.956;2022-08-01T06:20:59;17.60;;;16.15;;
22046;SDS011;11187;49.412;20.956;2022-08-01T06:23:32;18.50;;;17.20;;
22046;SDS011;11187;49.412;20.956;2022-08-01T06:26:28;20.05;;;18.67;;
22046;SDS011;11187;49.412;20.956;2022-08-01T06:29:01;18.40;;;17.00;;
22046;SDS011;11187;49.412;20.956;2022-08-01T06:31:49;17.67;;;16.27;;
22046;SDS011;11187;49.412;20.956;2022-08-01T06:34:43;16.30;;;15.00;;
22046;SDS011;11187;49.412;20.956;2022-08-01T06:37:16;17.10;;;15.75;;
22046;SDS011;11187;49.412;20.956;2022-08-01T06:40:03;16.70;;;15.40;;
22046;SDS011;11187;49.412;20.956;2022-08-01T06:42:42;16.00;;;14.77;;
22046;SDS011;11187;49.412;20.956;2022-08-01T06:45:30;16.15;;;14.70;;
22046;SDS011;11187;49.412;20.956;2022-08-01T06:48:03;17.65;;;16.05;;
22046;SDS011;11187;49.412;20.956;2022-08-01T06:50:57;19.17;;;16.92;;
22046;SDS011;11187;49.412;20.956;2022-08-01T06:54:00;14.40;;;13.30;;
22046;SDS011;11187;49.412;20.956;2022-08-01T06:56:33;18.75;;;17.45;;
22046;SDS011;11187;49.412;20.956;2022-08-01T06:59:20;17.75;;;16.35;;
22046;SDS011;11187;49.412;20.956;2022-08-01T07:01:53;17.42;;;16.08;;
22046;SDS011;11187;49.412;20.956;2022-08-01T07:04:48;18.77;;;17.23;;
22046;SDS011;11187;49.412;20.956;2022-08-01T07:07:42;18.88;;;17.67;;
22046;SDS011;11187;49.412;20.956;2022-08-01T07:10:15;19.02;;;17.67;;
22046;SDS011;11187;49.412;20.956;2022-08-01T07:13:10;19.05;;;17.65;;
22046;SDS011;11187;49.412;20.956;2022-08-01T07:15:44;19.15;;;17.67;;
22046;SDS011;11187;49.412;20.956;2022-08-01T07:18:34;19.00;;;17.60;;
22046;SDS011;11187;49.412;20.956;2022-08-01T07:21:07;19.33;;;17.98;;
22046;SDS011;11187;49.412;20.956;2022-08-01T07:24:14;17.38;;;16.02;;
22046;SDS011;11187;49.412;20.956;2022-08-01T07:26:48;20.33;;;18.92;;
22046;SDS011;11187;49.412;20.956;2022-08-01T07:30:04;20.25;;;18.48;;
22046;SDS011;11187;49.412;20.956;2022-08-01T07:32:38;19.42;;;17.55;;
22046;SDS011;11187;49.412;20.956;2022-08-01T07:35:25;16.45;;;15.23;;
22046;SDS011;11187;49.412;20.956;2022-08-01T07:37:58;17.20;;;16.00;;
22046;SDS011;11187;49.412;20.956;2022-08-01T07:40:51;17.90;;;16.70;;
22046;SDS011;11187;49.412;20.956;2022-08-01T07:43:24;16.00;;;14.65;;
22046;SDS011;11187;49.412;20.956;2022-08-01T07:46:11;19.38;;;18.08;;
22046;SDS011;11187;49.412;20.956;2022-08-01T07:48:44;19.30;;;17.90;;
22046;SDS011;11187;49.412;20.956;2022-08-01T07:51:31;18.83;;;17.48;;
22046;SDS011;11187;49.412;20.956;2022-08-01T07:54:04;18.23;;;16.88;;
22046;SDS011;11187;49.412;20.956;2022-08-01T07:56:51;16.85;;;15.35;;
22046;SDS011;11187;49.412;20.956;2022-08-01T07:59:24;16.10;;;14.65;;
22046;SDS011;11187;49.412;20.956;2022-08-01T08:02:18;18.35;;;17.05;;
22046;SDS011;11187;49.412;20.956;2022-08-01T08:04:51;18.63;;;17.05;;
22046;SDS011;11187;49.412;20.956;2022-08-01T08:07:45;16.50;;;15.10;;
22046;SDS011;11187;49.412;20.956;2022-08-01T08:10:39;17.63;;;16.42;;
22046;SDS011;11187;49.412;20.956;2022-08-01T08:13:12;18.17;;;16.67;;
22046;SDS011;11187;49.412;20.956;2022-08-01T08:15:59;21.55;;;19.88;;
22046;SDS011;11187;49.412;20.956;2022-08-01T08:18:32;19.73;;;18.30;;
22046;SDS011;11187;49.412;20.956;2022-08-01T08:21:19;16.05;;;14.85;;
22046;SDS011;11187;49.412;20.956;2022-08-01T08:23:52;15.70;;;14.40;;
22046;SDS011;11187;49.412;20.956;2022-08-01T08:26:57;17.30;;;15.90;;
22046;SDS011;11187;49.412;20.956;2022-08-01T08:29:32;19.55;;;17.83;;
22046;SDS011;11187;49.412;20.956;2022-08-01T08:32:19;16.02;;;14.88;;
22046;SDS011;11187;49.412;20.956;2022-08-01T08:35:13;15.13;;;13.88;;
22046;SDS011;11187;49.412;20.956;2022-08-01T08:38:27;17.80;;;16.38;;
22046;SDS011;11187;49.412;20.956;2022-08-01T08:41:21;17.27;;;15.30;;
22046;SDS011;11187;49.412;20.956;2022-08-01T08:44:17;16.25;;;14.95;;
22046;SDS011;11187;49.412;20.956;2022-08-01T08:47:12;16.63;;;15.50;;
22046;SDS011;11187;49.412;20.956;2022-08-01T08:50:07;16.05;;;14.65;;
22046;SDS011;11187;49.412;20.956;2022-08-01T08:53:01;15.50;;;14.32;;
22046;SDS011;11187;49.412;20.956;2022-08-01T08:55:58;18.33;;;16.98;;
22046;SDS011;11187;49.412;20.956;2022-08-01T08:58:52;15.02;;;13.82;;
22046;SDS011;11187;49.412;20.956;2022-08-01T09:01:25;18.15;;;16.80;;
22046;SDS011;11187;49.412;20.956;2022-08-01T09:04:21;17.80;;;16.30;;
22046;SDS011;11187;49.412;20.956;2022-08-01T09:07:15;16.60;;;15.32;;
22046;SDS011;11187;49.412;20.956;2022-08-01T09:09:49;15.55;;;14.55;;
22046;SDS011;11187;49.412;20.956;2022-08-01T09:16:06;17.70;;;16.35;;
22046;SDS011;11187;49.412;20.956;2022-08-01T09:18:39;16.13;;;15.02;;
22046;SDS011;11187;49.412;20.956;2022-08-01T09:21:32;17.35;;;15.93;;
22046;SDS011;11187;49.412;20.956;2022-08-01T09:24:13;16.15;;;14.90;;
22046;SDS011;11187;49.412;20.956;2022-08-01T09:27:19;17.70;;;16.33;;
22046;SDS011;11187;49.412;20.956;2022-08-01T09:29:53;17.45;;;16.25;;
22046;SDS011;11187;49.412;20.956;2022-08-01T09:32:56;16.15;;;15.00;;
22046;SDS011;11187;49.412;20.956;2022-08-01T09:36:00;17.30;;;15.90;;
22046;SDS011;11187;49.412;20.956;2022-08-01T09:38:38;14.95;;;13.70;;
22046;SDS011;11187;49.412;20.956;2022-08-01T09:41:30;16.73;;;15.05;;
22046;SDS011;11187;49.412;20.956;2022-08-01T09:44:05;16.65;;;15.27;;
22046;SDS011;11187;49.412;20.956;2022-08-01T09:46:53;14.70;;;13.55;;
22046;SDS011;11187;49.412;20.956;2022-08-01T09:49:36;17.83;;;16.60;;
22046;SDS011;11187;49.412;20.956;2022-08-01T09:52:31;16.00;;;14.80;;
22046;SDS011;11187;49.412;20.956;2022-08-01T09:55:07;14.35;;;13.45;;
22046;SDS011;11187;49.412;20.956;2022-08-01T09:57:56;14.48;;;13.27;;
22046;SDS011;11187;49.412;20.956;2022-08-01T10:00:36;15.45;;;14.35;;
22046;SDS011;11187;49.412;20.956;2022-08-01T10:03:25;14.77;;;13.50;;
22046;SDS011;11187;49.412;20.956;2022-08-01T10:05:59;14.30;;;13.35;;
22046;SDS011;11187;49.412;20.956;2022-08-01T10:08:53;15.93;;;14.93;;
22046;SDS011;11187;49.412;20.956;2022-08-01T10:11:47;15.95;;;14.75;;
22046;SDS011;11187;49.412;20.956;2022-08-01T10:14:41;16.80;;;15.60;;
22046;SDS011;11187;49.412;20.956;2022-08-01T10:17:17;16.25;;;14.80;;
22046;SDS011;11187;49.412;20.956;2022-08-01T10:20:31;15.95;;;14.85;;
22046;SDS011;11187;49.412;20.956;2022-08-01T10:23:26;14.82;;;13.68;;
22046;SDS011;11187;49.412;20.956;2022-08-01T10:26:21;16.08;;;14.98;;
22046;SDS011;11187;49.412;20.956;2022-08-01T10:29:19;17.58;;;16.08;;
22046;SDS011;11187;49.412;20.956;2022-08-01T10:32:36;18.52;;;17.17;;
22046;SDS011;11187;49.412;20.956;2022-08-01T10:35:30;17.77;;;16.55;;
22046;SDS011;11187;49.412;20.956;2022-08-01T10:38:13;19.63;;;18.20;;
22046;SDS011;11187;49.412;20.956;2022-08-01T10:41:09;17.63;;;16.50;;
22046;SDS011;11187;49.412;20.956;2022-08-01T10:43:42;18.23;;;16.55;;
22046;SDS011;11187;49.412;20.956;2022-08-01T10:46:31;18.73;;;17.10;;
22046;SDS011;11187;49.412;20.956;2022-08-01T10:49:11;17.17;;;15.95;;
22046;SDS011;11187;49.412;20.956;2022-08-01T10:52:01;18.17;;;16.90;;
22046;SDS011;11187;49.412;20.956;2022-08-01T10:54:39;17.10;;;15.90;;
22046;SDS011;11187;49.412;20.956;2022-08-01T10:57:44;16.65;;;15.45;;
22046;SDS011;11187;49.412;20.956;2022-08-01T11:00:19;18.73;;;17.42;;
22046;SDS011;11187;49.412;20.956;2022-08-01T11:03:08;18.52;;;17.13;;
22046;SDS011;11187;49.412;20.956;2022-08-01T11:05:41;18.30;;;16.52;;
22046;SDS011;11187;49.412;20.956;2022-08-01T11:08:32;18.17;;;16.90;;
22046;SDS011;11187;49.412;20.956;2022-08-01T11:11:11;18.65;;;17.15;;
22046;SDS011;11187;49.412;20.956;2022-08-01T11:14:02;18.63;;;17.42;;
22046;SDS011;11187;49.412;20.956;2022-08-01T11:20:33;15.02;;;14.00;;
22046;SDS011;11187;49.412;20.956;2022-08-01T11:23:29;16.80;;;15.73;;
22046;SDS011;11187;49.412;20.956;2022-08-01T11:26:31;15.23;;;14.23;;
22046;SDS011;11187;49.412;20.956;2022-08-01T11:29:26;19.65;;;18.33;;
22046;SDS011;11187;49.412;20.956;2022-08-01T11:32:23;18.73;;;17.13;;
22046;SDS011;11187;49.412;20.956;2022-08-01T11:35:38;16.80;;;15.60;;
22046;SDS011;11187;49.412;20.956;2022-08-01T11:41:53;20.38;;;18.75;;
22046;SDS011;11187;49.412;20.956;2022-08-01T11:44:30;20.55;;;19.15;;
22046;SDS011;11187;49.412;20.956;2022-08-01T11:47:43;19.70;;;18.40;;
22046;SDS011;11187;49.412;20.956;2022-08-01T11:50:34;18.65;;;17.50;;
22046;SDS011;11187;49.412;20.956;2022-08-01T11:53:29;20.50;;;19.00;;
22046;SDS011;11187;49.412;20.956;2022-08-01T11:56:24;20.20;;;18.85;;
22046;SDS011;11187;49.412;20.956;2022-08-01T11:58:59;22.00;;;20.42;;
22046;SDS011;11187;49.412;20.956;2022-08-01T12:01:54;22.00;;;20.33;;
22046;SDS011;11187;49.412;20.956;2022-08-01T12:04:44;20.58;;;19.27;;
22046;SDS011;11187;49.412;20.956;2022-08-01T12:07:42;19.77;;;18.20;;
22046;SDS011;11187;49.412;20.956;2022-08-01T12:10:17;18.48;;;17.25;;
22046;SDS011;11187;49.412;20.956;2022-08-01T12:13:13;18.05;;;16.65;;
22046;SDS011;11187;49.412;20.956;2022-08-01T12:15:46;21.65;;;20.17;;
22046;SDS011;11187;49.412;20.956;2022-08-01T12:18:38;21.83;;;20.10;;
22046;SDS011;11187;49.412;20.956;2022-08-01T12:21:15;18.35;;;17.00;;
22046;SDS011;11187;49.412;20.956;2022-08-01T12:24:02;16.75;;;15.50;;
22046;SDS011;11187;49.412;20.956;2022-08-01T12:26:41;18.45;;;17.02;;
22046;SDS011;11187;49.412;20.956;2022-08-01T12:29:35;16.27;;;15.05;;
22046;SDS011;11187;49.412;20.956;2022-08-01T12:32:23;18.90;;;17.50;;
22046;SDS011;11187;49.412;20.956;2022-08-01T12:35:20;18.92;;;17.55;;
22046;SDS011;11187;49.412;20.956;2022-08-01T12:38:02;21.10;;;19.70;;
22046;SDS011;11187;49.412;20.956;2022-08-01T12:41:00;16.45;;;15.30;;
22046;SDS011;11187;49.412;20.956;2022-08-01T12:43:55;20.45;;;18.95;;
22046;SDS011;11187;49.412;20.956;2022-08-01T12:46:49;16.83;;;15.65;;
22046;SDS011;11187;49.412;20.956;2022-08-01T12:49:22;17.92;;;16.42;;
22046;SDS011;11187;49.412;20.956;2022-08-01T12:52:17;19.33;;;18.02;;
22046;SDS011;11187;49.412;20.956;2022-08-01T12:55:18;19.58;;;18.10;;
22046;SDS011;11187;49.412;20.956;2022-08-01T12:58:04;17.73;;;16.45;;
22046;SDS011;11187;49.412;20.956;2022-08-01T13:01:02;18.30;;;17.00;;
22046;SDS011;11187;49.412;20.956;2022-08-01T13:03:37;20.30;;;18.95;;
22046;SDS011;11187;49.412;20.956;2022-08-01T13:06:31;21.95;;;19.88;;
22046;SDS011;11187;49.412;20.956;2022-08-01T13:09:49;21.38;;;19.80;;
22046;SDS011;11187;49.412;20.956;2022-08-01T13:12:50;21.02;;;19.60;;
22046;SDS011;11187;49.412;20.956;2022-08-01T13:15:46;20.98;;;19.38;;
22046;SDS011;11187;49.412;20.956;2022-08-01T13:18:27;20.38;;;18.88;;
22046;SDS011;11187;49.412;20.956;2022-08-01T13:21:23;21.48;;;19.55;;
22046;SDS011;11187;49.412;20.956;2022-08-01T13:24:41;19.02;;;17.73;;
22046;SDS011;11187;49.412;20.956;2022-08-01T13:27:35;17.95;;;16.60;;
22046;SDS011;11187;49.412;20.956;2022-08-01T13:30:32;19.98;;;18.17;;
22046;SDS011;11187;49.412;20.956;2022-08-01T13:33:27;17.67;;;16.42;;
22046;SDS011;11187;49.412;20.956;2022-08-01T13:36:39;19.70;;;18.30;;
22046;SDS011;11187;49.412;20.956;2022-08-01T13:39:33;18.55;;;17.25;;
22046;SDS011;11187;49.412;20.956;2022-08-01T13:42:28;19.05;;;17.65;;
22046;SDS011;11187;49.412;20.956;2022-08-01T13:45:02;19.05;;;17.85;;
22046;SDS011;11187;49.412;20.956;2022-08-01T13:47:53;17.88;;;16.77;;
22046;SDS011;11187;49.412;20.956;2022-08-01T13:50:38;20.65;;;19.15;;
22046;SDS011;11187;49.412;20.956;2022-08-01T13:53:38;18.52;;;16.98;;
22046;SDS011;11187;49.412;20.956;2022-08-01T13:56:18;20.33;;;18.95;;
22046;SDS011;11187;49.412;20.956;2022-08-01T13:59:00;17.80;;;16.50;;
22046;SDS011;11187;49.412;20.956;2022-08-01T14:01:40;17.95;;;16.42;;
22046;SDS011;11187;49.412;20.956;2022-08-01T14:04:21;19.58;;;18.17;;
22046;SDS011;11187;49.412;20.956;2022-08-01T14:07:01;17.10;;;15.90;;
22046;SDS011;11187;49.412;20.956;2022-08-01T14:09:46;15.43;;;14.43;;
22046;SDS011;11187;49.412;20.956;2022-08-01T14:12:47;16.00;;;14.90;;
22046;SDS011;11187;49.412;20.956;2022-08-01T14:15:22;19.35;;;18.05;;
22046;SDS011;11187;49.412;20.956;2022-08-01T14:18:18;20.70;;;19.40;;
22046;SDS011;11187;49.412;20.956;2022-08-01T14:20:52;19.88;;;18.40;;
22046;SDS011;11187;49.412;20.956;2022-08-01T14:23:46;23.25;;;21.63;;
22046;SDS011;11187;49.412;20.956;2022-08-01T14:26:19;21.73;;;20.17;;
22046;SDS011;11187;49.412;20.956;2022-08-01T14:29:15;22.75;;;21.10;;
22046;SDS011;11187;49.412;20.956;2022-08-01T14:32:29;22.75;;;21.05;;
22046;SDS011;11187;49.412;20.956;2022-08-01T14:35:23;21.83;;;19.92;;
22046;SDS011;11187;49.412;20.956;2022-08-01T14:38:37;21.40;;;19.92;;
22046;SDS011;11187;49.412;20.956;2022-08-01T14:41:31;23.58;;;21.88;;
22046;SDS011;11187;49.412;20.956;2022-08-01T14:44:07;23.00;;;21.27;;
22046;SDS011;11187;49.412;20.956;2022-08-01T14:46:53;20.85;;;19.35;;
22046;SDS011;11187;49.412;20.956;2022-08-01T14:49:41;19.77;;;18.48;;
22046;SDS011;11187;49.412;20.956;2022-08-01T14:52:28;19.92;;;18.60;;
22046;SDS011;11187;49.412;20.956;2022-08-01T14:55:01;21.67;;;20.13;;
22046;SDS011;11187;49.412;20.956;2022-08-01T14:57:56;19.40;;;18.00;;
22046;SDS011;11187;49.412;20.956;2022-08-01T15:00:29;21.05;;;19.75;;
22046;SDS011;11187;49.412;20.956;2022-08-01T15:03:16;22.05;;;20.55;;
22046;SDS011;11187;49.412;20.956;2022-08-01T15:05:49;16.98;;;15.75;;
22046;SDS011;11187;49.412;20.956;2022-08-01T15:08:36;17.77;;;16.48;;
22046;SDS011;11187;49.412;20.956;2022-08-01T15:11:09;18.38;;;16.98;;
22046;SDS011;11187;49.412;20.956;2022-08-01T15:13:56;17.88;;;16.75;;
22046;SDS011;11187;49.412;20.956;2022-08-01T15:16:49;20.20;;;18.67;;
22046;SDS011;11187;49.412;20.956;2022-08-01T15:19:43;21.42;;;19.65;;
22046;SDS011;11187;49.412;20.956;2022-08-01T15:22:37;20.90;;;19.50;;
22046;SDS011;11187;49.412;20.956;2022-08-01T15:25:10;18.70;;;17.17;;
22046;SDS011;11187;49.412;20.956;2022-08-01T15:28:19;18.63;;;16.83;;
22046;SDS011;11187;49.412;20.956;2022-08-01T15:31:13;19.08;;;17.77;;
22046;SDS011;11187;49.412;20.956;2022-08-01T15:33:53;17.50;;;16.30;;
22046;SDS011;11187;49.412;20.956;2022-08-01T15:36:47;18.08;;;16.63;;
22046;SDS011;11187;49.412;20.956;2022-08-01T15:39:41;18.73;;;17.33;;
22046;SDS011;11187;49.412;20.956;2022-08-01T15:42:15;18.48;;;16.65;;
22046;SDS011;11187;49.412;20.956;2022-08-01T15:45:05;17.58;;;16.27;;
22046;SDS011;11187;49.412;20.956;2022-08-01T15:47:59;20.25;;;18.58;;
22046;SDS011;11187;49.412;20.956;2022-08-01T15:50:53;18.20;;;16.42;;
22046;SDS011;11187;49.412;20.956;2022-08-01T15:53:47;18.65;;;17.35;;
22046;SDS011;11187;49.412;20.956;2022-08-01T15:56:20;16.05;;;14.90;;
22046;SDS011;11187;49.412;20.956;2022-08-01T15:59:07;18.65;;;16.90;;
22046;SDS011;11187;49.412;20.956;2022-08-01T16:01:41;18.95;;;17.63;;
22046;SDS011;11187;49.412;20.956;2022-08-01T16:04:30;16.25;;;15.15;;
22046;SDS011;11187;49.412;20.956;2022-08-01T16:07:04;17.35;;;16.15;;
22046;SDS011;11187;49.412;20.956;2022-08-01T16:09:51;16.65;;;15.15;;
22046;SDS011;11187;49.412;20.956;2022-08-01T16:12:24;16.88;;;15.65;;
22046;SDS011;11187;49.412;20.956;2022-08-01T16:15:11;18.30;;;17.10;;
22046;SDS011;11187;49.412;20.956;2022-08-01T16:17:44;16.52;;;15.02;;
22046;SDS011;11187;49.412;20.956;2022-08-01T16:20:41;16.63;;;14.93;;
22046;SDS011;11187;49.412;20.956;2022-08-01T16:23:35;17.20;;;15.93;;
22046;SDS011;11187;49.412;20.956;2022-08-01T16:26:08;16.40;;;15.25;;